Pagrindinis puslapis
METAR-TAF:

METAR-TAF

Oro uostai :

Paksė, Laosas

platuma: 15-08-02N, ilguma: 105-46-55E, Aukštis: 107 m

Dabartinis oras

Ataskaita buvo paskelbta 43 minutes, ne 04:00 UTC
Vėjas 6 kt iš Rytų
Temperatūra 26°C
Drėgmė 89%
Slėgis 1010 hPa
Matomumas: 7000 m
Išsisklaidę debesys ne aukštis 1300 ft
Išsisklaidę debesys ne aukštis 5000 ft
Apsiniaukę ne aukštis 10000 ft
lietus

METAR: VLPS 140400Z 09006KT 7000 RA SCT013 SCT050 OVC100 26/24 Q1010 NOSIG

Laikas: 11:43 (04:43 UTC)

Prognozė

Ataskaita buvo paskelbta 5 valandos ir 43 minutes, ne 23:00 UTC
Prognozė galioja nuo 14 metu 00 UTC su 14 metu 24 UTC
Vėjas 4 kt iš Pietų
Matomumas 10 km arba daugiau
Išsisklaidę debesys ne aukštis 1300 ft
Išsisklaidę debesys ne aukštis 5000 ft
Su prošvaistėmis ne aukštis 20000 ft

TAF: VLPS 132300Z 1400/1424 18004KT 9999 SCT013 SCT050 BKN200

Orai ataskaitas ir orų prognozės (METAR, TAF).

turimą stotys yra geltonos ir raudonos taškus žemėlapyje.

Perkelti pele per norėdami pamatyti stoties vardą.

Tada spustelėkite, norėdami matyti oro stebėjimo ir prognozės.

Norėdami pakeisti žemėlapį: spustelėkite ant žalios mygtukų su juodo kryžiaus žemyn,; žalią mygtuką su brūkšneliu, jei norite nutolinti; arba žalių rodyklių gretimoms žemėlapius.


METAR-TAF: